Thunder radar more information blitzortung!


Radar de pluja more information rain snow radar


Visita la nostra xarxa de llocs de meteo:

Template documentation
and downloads

And another site



No particular awareness of the weather is required.    There are no Weather-warnings

Pagina Historial Weather Underground text

Diari Resum Novembre 19, 2017 Unitats:  Imperial    Mètric   Tant
« Previous Dia
SegĂźent Dia »
Diari Setmana Mensual Anual Personalitzada
  Maxima: Minima: Media:
Temperatura: 61.5 °F 40.1 °F 50.5 °F
Punt de rosada: 43.7 °F 29.7 °F 36 °F
Humitat: 69 % 51 % 58 %
Wind Speed: 5.8 mph 0 mph 1.9 mph
RĂ fegues de vent: 6 mph - -
Vent:- - South
Pression baro: 30.2 in 30.1 in -
Precipitacions: 0 in    
Historical Graphs
 
 
Dades de taula per Novembre 19, 2017
Temps Temperatura Punt de rosada Pression baro Vent Wind Speed RĂ fegues de vent Humitat Rainfall Rate (Hourly)
00:00 40.8 °F 30 °F 30.1 in North 1 mph 3 mph 65 % 0 in
00:04 45 °F 30.2 °F 30.2 in WSW 2.3 mph 2.3 mph 56 % 0 in
00:09 45 °F 30.2 °F 30.2 in WSW 2.3 mph 2.3 mph 56 % 0 in
00:14 45.3 °F 30.6 °F 30.2 in WSW 2.3 mph 2.3 mph 56 % 0 in
00:19 45 °F 30.2 °F 30.2 in NNE 1.2 mph 1.2 mph 56 % 0 in
00:20 41.2 °F 30.4 °F 30.1 in NW 2 mph 3 mph 65 % 0 in
00:24 45.3 °F 30.6 °F 30.2 in WNW 2.3 mph 2.3 mph 56 % 0 in
00:29 45.5 °F 31.1 °F 30.2 in WNW 1.2 mph   57 % 0 in
00:30 41.2 °F 30.4 °F 30.1 in NNW 1 mph 2 mph 65 % 0 in
00:34 45.3 °F 30.9 °F 30.2 in Calm     57 % 0 in
00:39 45.1 °F 30.7 °F 30.2 in Calm     57 % 0 in
00:40 41.2 °F 30.4 °F 30.1 in NNW 2 mph 3 mph 65 % 0 in
00:44 45.1 °F 30.7 °F 30.2 in WNW 1.2 mph 1.2 mph 57 % 0 in
00:49 45.1 °F 30.7 °F 30.2 in Calm     57 % 0 in
01:00 40.3 °F 29.8 °F 30.1 in West 1 mph 2 mph 66 % 0 in
01:10 40.5 °F 29.7 °F 30.1 in West 2 mph 2 mph 65 % 0 in
01:20 40.6 °F 30.2 °F 30.1 in West 1 mph 2 mph 66 % 0 in
01:30 40.6 °F 30.2 °F 30.2 in Calm   2 mph 66 % 0 in
01:40 40.8 °F 30.4 °F 30.1 in NW 1 mph 3 mph 66 % 0 in
01:50 41.2 °F 30.7 °F 30.1 in NNE 3 mph 4 mph 66 % 0 in
02:00 41 °F 30.6 °F 30.2 in Calm   4 mph 66 % 0 in
02:10 41.2 °F 30.7 °F 30.2 in North 2 mph 3 mph 66 % 0 in
02:40 42.8 °F 32.2 °F 30.2 in NE 1 mph 2 mph 66 % 0 in
03:00 43 °F 32 °F 30.2 in NNE 3 mph 3 mph 65 % 0 in
03:20 43.9 °F 32.9 °F 30.2 in North 2 mph 3 mph 65 % 0 in
03:30 44.6 °F 33.3 °F 30.2 in North 2 mph 3 mph 64 % 0 in
03:50 45.5 °F 34 °F 30.2 in North 2 mph 3 mph 64 % 0 in
04:00 46.4 °F 34.5 °F 30.2 in NNE 2 mph 4 mph 63 % 0 in
04:10 47.5 °F 35.4 °F 30.2 in NNE 1 mph 2 mph 63 % 0 in
04:30 48.4 °F 36 °F 30.2 in NNE 2 mph 3 mph 62 % 0 in
04:40 48.7 °F 36 °F 30.2 in North 3 mph 3 mph 61 % 0 in
04:50 48.6 °F 35.8 °F 30.2 in NNE 3 mph 4 mph 61 % 0 in
05:00 49.5 °F 36.7 °F 30.2 in NNE 3 mph 6 mph 61 % 0 in
11:10 50.4 °F 37 °F 30.2 in NE 3.6 mph 3.6 mph 60 % 0 in
11:15 50.5 °F 37.2 °F 30.2 in NNE 4.6 mph 4.6 mph 60 % 0 in
11:20 50.9 °F 37.6 °F 30.2 in ENE 3.6 mph 3.6 mph 60 % 0 in
11:30 51.4 °F 37.6 °F 30.2 in ENE 4.6 mph 4.6 mph 59 % 0 in
11:35 51.8 °F 37.9 °F 30.2 in North 4 mph 4 mph 59 % 0 in
11:45 52.3 °F 38.5 °F 30.2 in ENE 2.3 mph 2.3 mph 59 % 0 in
11:50 52.7 °F 38.3 °F 30.2 in ENE 3.5 mph 3.5 mph 58 % 0 in
11:55 52.9 °F 38.5 °F 30.2 in ENE 5.8 mph 5.8 mph 58 % 0 in
12:10 54 °F 39 °F 30.2 in ENE 3.5 mph 3.5 mph 57 % 0 in
12:15 54.1 °F 39.2 °F 30.2 in ESE 5.8 mph 5.8 mph 57 % 0 in
12:20 54.5 °F 39.6 °F 30.2 in NNE 3.5 mph 3.5 mph 57 % 0 in
12:30 54.9 °F 39.6 °F 30.2 in North 4.6 mph 4.6 mph 56 % 0 in
12:45 55.4 °F 39.9 °F 30.2 in NNE 3.3 mph 3.3 mph 56 % 0 in
12:50 55.9 °F 40.5 °F 30.2 in NNE 2.3 mph 2.3 mph 56 % 0 in
12:55 55.9 °F 40.5 °F 30.2 in North 3.5 mph 3.5 mph 56 % 0 in
13:00 55.9 °F 39.9 °F 30.2 in East 3.5 mph 3.5 mph 55 % 0 in
13:10 56.5 °F 40.5 °F 30.2 in ENE 3.5 mph 3.5 mph 55 % 0 in
13:15 56.7 °F 40.6 °F 30.2 in NNE 4.7 mph 4.7 mph 55 % 0 in
13:20 56.8 °F 40.8 °F 30.2 in NE 3.6 mph 3.6 mph 55 % 0 in
13:25 57 °F 40.5 °F 30.2 in North 5.6 mph 5.6 mph 54 % 0 in
13:30 57 °F 40.5 °F 30.2 in ESE 3.6 mph 3.6 mph 54 % 0 in
13:35 57.2 °F 40.6 °F 30.2 in ENE 2.3 mph 2.3 mph 54 % 0 in
13:40 57.6 °F 41 °F 30.2 in NNW 3.5 mph 3.5 mph 54 % 0 in
13:45 57.7 °F 41.2 °F 30.2 in NNE 3.5 mph 3.5 mph 54 % 0 in
13:50 57.7 °F 41.2 °F 30.2 in NNW 2.3 mph 2.3 mph 54 % 0 in
13:55 57.9 °F 41.4 °F 30.2 in ENE 3.1 mph 3.1 mph 54 % 0 in
14:00 57.9 °F 41.4 °F 30.2 in NE 2.3 mph 2.3 mph 54 % 0 in
14:05 58.3 °F 41.7 °F 30.2 in NNE 4.6 mph 4.6 mph 54 % 0 in
14:10 58.3 °F 41.7 °F 30.2 in NNE 4 mph 4 mph 54 % 0 in
14:15 58.5 °F 41.9 °F 30.2 in North 2.9 mph 2.9 mph 54 % 0 in
14:20 58.6 °F 42.1 °F 30.2 in NE 2.3 mph 2.3 mph 54 % 0 in
14:30 59 °F 41.9 °F 30.2 in NE 4.6 mph 4.6 mph 53 % 0 in
14:35 59 °F 41.9 °F 30.2 in NNE 2.4 mph 2.4 mph 53 % 0 in
14:40 59 °F 41.9 °F 30.2 in NNE 4.6 mph 4.6 mph 53 % 0 in
14:45 59 °F 41.9 °F 30.2 in NE 4.6 mph 4.6 mph 53 % 0 in
14:50 59 °F 41.9 °F 30.2 in NNE 4.6 mph 4.6 mph 53 % 0 in
14:55 59.2 °F 42.1 °F 30.2 in ENE 2.2 mph   53 % 0 in
15:00 59.4 °F 42.3 °F 30.2 in ENE 3.5 mph 3.5 mph 53 % 0 in
15:05 59.5 °F 42.4 °F 30.2 in NNE 1.2 mph   53 % 0 in
15:10 59.5 °F 42.4 °F 30.2 in NE 2.3 mph 2.3 mph 53 % 0 in
15:15 59.7 °F 42.1 °F 30.2 in ENE 1.4 mph 1.4 mph 52 % 0 in
15:20 59.7 °F 42.1 °F 30.2 in NNE 3.5 mph 3.5 mph 52 % 0 in
15:25 59.7 °F 42.1 °F 30.2 in NE 1.6 mph 1.6 mph 52 % 0 in
15:30 59.7 °F 42.1 °F 30.2 in NNE 2.3 mph 2.3 mph 52 % 0 in
15:35 59.7 °F 42.1 °F 30.2 in NNE 2.3 mph 2.3 mph 52 % 0 in
15:40 59.9 °F 42.3 °F 30.2 in NE 2.3 mph 2.3 mph 52 % 0 in
15:41 59.9 °F 42.3 °F 30.2 in NNE 2.3 mph 2.3 mph 52 % 0 in
15:46 59.9 °F 42.3 °F 30.2 in NE 1.2 mph   52 % 0 in
15:51 60.1 °F 42.4 °F 30.2 in North 1.2 mph 1.2 mph 52 % 0 in
15:56 60.1 °F 42.4 °F 30.2 in Calm     52 % 0 in
16:06 60.1 °F 41.9 °F 30.2 in Calm     51 % 0 in
16:11 60.3 °F 42.1 °F 30.2 in ENE 1.6 mph   51 % 0 in
16:16 61.3 °F 43.5 °F 30.2 in SW 2.3 mph 2.3 mph 52 % 0 in
16:21 61 °F 42.6 °F 30.2 in Calm     51 % 0 in
16:26 61 °F 42.6 °F 30.2 in SW 1.2 mph 1.2 mph 51 % 0 in
16:31 61.2 °F 43 °F 30.2 in Calm     51 % 0 in
16:36 61.5 °F 43.7 °F 30.2 in SW 1.4 mph 1.4 mph 52 % 0 in
16:41 61.2 °F 43.3 °F 30.2 in WNW 2.3 mph 2.3 mph 52 % 0 in
16:46 61.2 °F 43.3 °F 30.2 in WNW 4.6 mph 4.6 mph 52 % 0 in
16:51 60.8 °F 42.4 °F 30.2 in WNW 3.5 mph 3.5 mph 51 % 0 in
16:56 60.4 °F 42.3 °F 30.2 in NNW 2.3 mph 2.3 mph 51 % 0 in
17:01 59.9 °F 41.7 °F 30.2 in West 2.4 mph 2.4 mph 51 % 0 in
17:06 59.5 °F 41.4 °F 30.2 in NW 2.3 mph 2.3 mph 51 % 0 in
17:16 58.6 °F 40.6 °F 30.2 in WNW 2.3 mph 2.3 mph 51 % 0 in
17:21 58.3 °F 40.3 °F 30.2 in NW 1.2 mph   51 % 0 in
17:31 57.2 °F 39.2 °F 30.2 in WNW 3.5 mph 3.5 mph 51 % 0 in
17:36 56.8 °F 38.8 °F 30.2 in WNW 2.3 mph 2.3 mph 51 % 0 in
17:41 56.7 °F 38.7 °F 30.2 in WNW 0.9 mph   51 % 0 in
17:46 56.3 °F 38.8 °F 30.2 in NW 2.3 mph 2.3 mph 52 % 0 in
17:47 56.3 °F 38.8 °F 30.2 in NW 2.3 mph 2.3 mph 52 % 0 in
17:52 56.1 °F 38.7 °F 30.2 in NW 1.2 mph 1.2 mph 52 % 0 in
17:57 55.8 °F 38.5 °F 30.2 in Calm     52 % 0 in
18:02 55.6 °F 38.1 °F 30.2 in WSW 2.3 mph 2.3 mph 52 % 0 in
18:07 54.9 °F 37.6 °F 30.2 in SW 2.3 mph 2.3 mph 52 % 0 in
18:12 54.5 °F 37.2 °F 30.2 in SW 2.3 mph 2.3 mph 52 % 0 in
18:17 54.1 °F 36.9 °F 30.2 in SW 2.3 mph 2.3 mph 52 % 0 in
18:20 45.7 °F 33.4 °F 30.2 in Calm   4 mph 62 % 0 in
18:22 53.8 °F 36.7 °F 30.2 in WSW 2.3 mph 2.3 mph 52 % 0 in
18:27 53.8 °F 36.7 °F 30.2 in West 2.3 mph 2.3 mph 52 % 0 in
18:32 53.8 °F 36.7 °F 30.2 in WSW 2.3 mph 2.4 mph 52 % 0 in
18:37 54 °F 37.2 °F 30.2 in West 4.6 mph 4.6 mph 53 % 0 in
18:40 45.3 °F 33.1 °F 30.2 in Calm   1 mph 62 % 0 in
18:42 53.8 °F 37 °F 30.2 in WNW 2.3 mph 2.3 mph 53 % 0 in
18:52 53.8 °F 37 °F 30.2 in West 2.3 mph 2.3 mph 53 % 0 in
18:57 53.6 °F 36.9 °F 30.2 in WSW 1.4 mph 1.4 mph 53 % 0 in
19:00 44.6 °F 32.7 °F 30.2 in Calm   1 mph 63 % 0 in
19:07 52.9 °F 36.1 °F 30.2 in NE 2.3 mph 2.3 mph 53 % 0 in
19:12 52.5 °F 36 °F 30.2 in West 1.4 mph 1.4 mph 53 % 0 in
19:17 52.3 °F 35.8 °F 30.2 in SW 2.3 mph 2.3 mph 53 % 0 in
19:20 44.1 °F 32.4 °F 30.2 in North 1 mph 1 mph 63 % 0 in
19:22 52 °F 35.4 °F 30.2 in SW 2 mph 2 mph 53 % 0 in
19:27 51.8 °F 35.2 °F 30.2 in SW 2.4 mph 2.4 mph 53 % 0 in
19:30 44.1 °F 32.7 °F 30.2 in Calm   1 mph 64 % 0 in
19:32 51.4 °F 34.9 °F 30.2 in SW 2.4 mph 2.4 mph 53 % 0 in
19:47 50.5 °F 34.5 °F 30.2 in WSW 2.2 mph 2.2 mph 54 % 0 in
19:50 43.5 °F 32.2 °F 30.2 in North 1 mph 2 mph 64 % 0 in
19:52 50.5 °F 34.5 °F 30.2 in WSW 2.4 mph 2.4 mph 54 % 0 in
20:00 42.8 °F 31.5 °F 30.2 in Calm   1 mph 64 % 0 in
20:02 50 °F 34 °F 30.2 in WSW 2.3 mph 2.3 mph 54 % 0 in
20:07 49.8 °F 33.8 °F 30.2 in WSW 1.2 mph 1.4 mph 54 % 0 in
20:10 42.8 °F 31.8 °F 30.2 in Calm     65 % 0 in
20:12 49.5 °F 34 °F 30.2 in Calm     55 % 0 in
20:17 49.3 °F 33.8 °F 30.2 in Calm     55 % 0 in
20:20 42.8 °F 31.8 °F 30.2 in West 1 mph 1 mph 65 % 0 in
20:22 49.1 °F 33.6 °F 30.2 in Calm     55 % 0 in
20:30 42.6 °F 31.6 °F 30.2 in Calm   1 mph 65 % 0 in
20:32 48.9 °F 33.4 °F 30.2 in Calm     55 % 0 in
20:40 42.4 °F 31.5 °F 30.2 in West 1 mph 2 mph 65 % 0 in
20:42 48.6 °F 33.6 °F 30.2 in WSW 1.2 mph   56 % 0 in
20:47 48.6 °F 33.6 °F 30.2 in WSW 2.3 mph 2.3 mph 56 % 0 in
20:50 42.1 °F 31.3 °F 30.2 in West 1 mph 2 mph 65 % 0 in
20:52 48.4 °F 33.4 °F 30.2 in SW 1.2 mph   56 % 0 in
20:57 48.2 °F 33.3 °F 30.2 in SW 1.2 mph   56 % 0 in
21:00 42.3 °F 31.6 °F 30.2 in WSW 1 mph 2 mph 66 % 0 in
21:02 48.2 °F 33.3 °F 30.2 in WSW 2.3 mph 2.3 mph 56 % 0 in
21:07 48.2 °F 33.3 °F 30.2 in WSW 2.3 mph 2.3 mph 56 % 0 in
21:12 48 °F 33.4 °F 30.2 in SW 2.6 mph 2.6 mph 57 % 0 in
21:17 47.8 °F 33.3 °F 30.2 in WSW 2 mph 2 mph 57 % 0 in
21:20 41.9 °F 31.6 °F 30.2 in Calm     67 % 0 in
21:27 47.7 °F 33.3 °F 30.2 in SW 2.3 mph 2.3 mph 57 % 0 in
21:32 47.8 °F 33.3 °F 30.2 in SW 2.3 mph 2.3 mph 57 % 0 in
21:40 41.9 °F 31.6 °F 30.2 in Calm   1 mph 67 % 0 in
21:43 47.7 °F 33.6 °F 30.2 in Calm     58 % 0 in
21:48 47.5 °F 33.4 °F 30.2 in Calm     58 % 0 in
21:50 41.4 °F 30.7 °F 30.2 in WSW 1 mph 2 mph 66 % 0 in
21:53 47.3 °F 33.3 °F 30.2 in WSW 2.3 mph 2.3 mph 58 % 0 in
21:58 46.9 °F 32.9 °F 30.2 in WSW 2.3 mph 2.3 mph 58 % 0 in
22:00 41 °F 31.3 °F 30.2 in Calm   2 mph 68 % 0 in
22:03 46.9 °F 32.9 °F 30.2 in WSW 2.3 mph 2.3 mph 58 % 0 in
22:08 46.8 °F 33.3 °F 30.2 in WSW 2.3 mph 2.3 mph 59 % 0 in
22:10 41.2 °F 30.9 °F 30.2 in WSW 1 mph 2 mph 67 % 0 in
22:13 46.8 °F 33.3 °F 30.2 in WSW 2.3 mph 2.3 mph 59 % 0 in
22:18 46.6 °F 33.1 °F 30.2 in WSW 1.2 mph   59 % 0 in
22:23 46.4 °F 32.7 °F 30.2 in WSW 1.4 mph 1.4 mph 59 % 0 in
22:28 46 °F 32.9 °F 30.2 in SW 2.3 mph 2.3 mph 60 % 0 in
22:30 40.8 °F 31.1 °F 30.2 in Calm     68 % 0 in
22:33 45.9 °F 32.7 °F 30.2 in WSW 2.3 mph 2.3 mph 60 % 0 in
22:40 40.8 °F 31.5 °F 30.2 in WSW 2 mph 2 mph 69 % 0 in
22:43 45.7 °F 33.1 °F 30.2 in Calm     61 % 0 in
22:48 45.7 °F 33.1 °F 30.2 in Calm     61 % 0 in
22:49 45.5 °F 32.7 °F 30.2 in Calm     61 % 0 in
22:50 41 °F 31.6 °F 30.2 in Calm   1 mph 69 % 0 in
22:54 45.5 °F 32.7 °F 30.2 in Calm     61 % 0 in
22:59 45.7 °F 33.1 °F 30.2 in Calm     61 % 0 in
23:00 40.6 °F 30.9 °F 30.2 in NW 1 mph 2 mph 68 % 0 in
23:04 45.7 °F 33.1 °F 30.2 in Calm     61 % 0 in
23:10 40.6 °F 30.9 °F 30.2 in Calm   2 mph 68 % 0 in
23:14 45.5 °F 33.3 °F 30.2 in Calm     62 % 0 in
23:19 45.7 °F 33.1 °F 30.2 in NNW 1.4 mph 1.4 mph 61 % 0 in
23:24 46 °F 33.6 °F 30.2 in West 1.2 mph   62 % 0 in
23:29 45.9 °F 33.3 °F 30.2 in West 2.3 mph 2.3 mph 61 % 0 in
23:30 40.5 °F 31.1 °F 30.2 in Calm   2 mph 69 % 0 in
23:34 45.7 °F 33.4 °F 30.2 in West 1.6 mph 1.6 mph 62 % 0 in
23:40 40.3 °F 30.9 °F 30.2 in Calm     69 % 0 in
23:44 45.5 °F 33.3 °F 30.2 in WSW 1.2 mph 1.4 mph 62 % 0 in
23:50 40.1 °F 30.7 °F 30.2 in NW 1 mph 2 mph 69 % 0 in
23:54 45.5 °F 33.3 °F 30.2 in West 2.4 mph 2.4 mph 62 % 0 in
Meteo Sesrovires
Elogis d' Weather Underground - 3.5 mb

Guio original per  Jim McMurry - jmcmurry@mwt.net Adaptat per a la plantilla per  Wim van der Kuil - Leuven-Template.eu

Trobareu la nostra informacio del temps tambe a:

Weather Underground

AWEKAS